createdAt,value
2022-12-11T00:00:41.383Z,1007.44
2022-12-11T00:01:41.369Z,1007.42
2022-12-11T00:02:41.426Z,1007.43
2022-12-11T00:03:41.415Z,1007.44
2022-12-11T00:04:41.353Z,1007.43
2022-12-11T00:05:41.343Z,1007.42
2022-12-11T00:06:41.355Z,1007.44
2022-12-11T00:07:41.331Z,1007.43
2022-12-11T00:08:41.328Z,1007.41
2022-12-11T00:09:41.335Z,1007.46
2022-12-11T00:10:41.312Z,1007.43
2022-12-11T00:11:41.314Z,1007.45
2022-12-11T00:12:41.305Z,1007.38
2022-12-11T00:13:41.303Z,1007.41
2022-12-11T00:14:41.312Z,1007.40
2022-12-11T00:15:41.294Z,1007.41
2022-12-11T00:16:41.321Z,1007.43
2022-12-11T00:17:41.267Z,1007.41
2022-12-11T00:18:41.279Z,1007.47
2022-12-11T00:19:41.275Z,1007.47
2022-12-11T00:20:41.265Z,1007.52
2022-12-11T00:21:41.257Z,1007.48
2022-12-11T00:22:41.238Z,1007.47
2022-12-11T00:23:41.232Z,1007.45
2022-12-11T00:24:41.247Z,1007.46
2022-12-11T00:25:41.220Z,1007.46
2022-12-11T00:26:41.232Z,1007.45
2022-12-11T00:27:41.221Z,1007.41
2022-12-11T00:28:41.206Z,1007.43
2022-12-11T00:29:41.215Z,1007.42
2022-12-11T00:30:41.243Z,1007.45
2022-12-11T00:31:41.210Z,1007.42
2022-12-11T00:32:41.182Z,1007.44
2022-12-11T00:33:41.183Z,1007.45
2022-12-11T00:34:41.179Z,1007.44
2022-12-11T00:35:41.164Z,1007.39
2022-12-11T00:36:41.169Z,1007.39
2022-12-11T00:37:41.178Z,1007.39
2022-12-11T00:38:41.159Z,1007.39
2022-12-11T00:39:41.147Z,1007.39
2022-12-11T00:40:41.126Z,1007.41
2022-12-11T00:41:41.118Z,1007.36
2022-12-11T00:42:41.126Z,1007.41
2022-12-11T00:43:41.115Z,1007.38
2022-12-11T00:44:41.102Z,1007.45
2022-12-11T00:45:41.198Z,1007.39
2022-12-11T00:46:41.113Z,1007.40
2022-12-11T00:47:41.091Z,1007.43
2022-12-11T00:48:41.076Z,1007.45
2022-12-11T00:49:43.938Z,1007.40
2022-12-11T00:50:41.086Z,1007.41
2022-12-11T00:51:41.052Z,1007.41
2022-12-11T00:52:41.051Z,1007.40
2022-12-11T00:53:41.042Z,1007.39
2022-12-11T00:54:41.041Z,1007.37
2022-12-11T00:55:41.029Z,1007.33
2022-12-11T00:56:41.037Z,1007.32
2022-12-11T00:57:41.034Z,1007.31
2022-12-11T00:58:41.021Z,1007.27
2022-12-11T00:59:41.017Z,1007.29
2022-12-11T01:00:41.016Z,1007.33
2022-12-11T01:01:41.016Z,1007.31
2022-12-11T01:02:41.061Z,1007.28
2022-12-11T01:03:40.997Z,1007.30
2022-12-11T01:04:41.000Z,1007.30
2022-12-11T01:05:40.985Z,1007.34
2022-12-11T01:06:40.990Z,1007.34
2022-12-11T01:07:40.969Z,1007.34
2022-12-11T01:08:40.971Z,1007.34
2022-12-11T01:09:40.956Z,1007.34
2022-12-11T01:10:41.005Z,1007.34
2022-12-11T01:11:40.935Z,1007.35
2022-12-11T01:12:40.962Z,1007.33
2022-12-11T01:13:40.930Z,1007.33
2022-12-11T01:14:40.923Z,1007.34
2022-12-11T01:15:41.766Z,1007.36
2022-12-11T01:16:40.979Z,1007.37
2022-12-11T01:17:40.916Z,1007.38
2022-12-11T01:18:40.917Z,1007.41
2022-12-11T01:19:40.897Z,1007.41
2022-12-11T01:20:40.894Z,1007.36
2022-12-11T01:21:40.872Z,1007.41
2022-12-11T01:22:40.880Z,1007.44
2022-12-11T01:23:40.873Z,1007.41
2022-12-11T01:24:40.870Z,1007.43
2022-12-11T01:25:40.861Z,1007.42
2022-12-11T01:26:40.876Z,1007.42
2022-12-11T01:27:40.850Z,1007.36
2022-12-11T01:28:40.849Z,1007.41
2022-12-11T01:29:40.822Z,1007.44
2022-12-11T01:30:40.886Z,1007.39
2022-12-11T01:31:40.826Z,1007.36
2022-12-11T01:32:40.815Z,1007.33
2022-12-11T01:33:40.801Z,1007.30
2022-12-11T01:34:40.852Z,1007.28
2022-12-11T01:35:40.791Z,1007.32
2022-12-11T01:36:40.784Z,1007.32
2022-12-11T01:37:40.803Z,1007.31
2022-12-11T01:38:40.784Z,1007.32
2022-12-11T01:39:40.783Z,1007.33
2022-12-11T01:40:40.775Z,1007.30
2022-12-11T01:41:40.749Z,1007.29
2022-12-11T01:42:40.766Z,1007.31
2022-12-11T01:43:40.745Z,1007.30
2022-12-11T01:44:40.753Z,1007.34
2022-12-11T01:45:40.801Z,1007.29
2022-12-11T01:46:40.732Z,1007.29
2022-12-11T01:47:40.730Z,1007.29
2022-12-11T01:48:42.389Z,1007.32
2022-12-11T01:49:40.719Z,1007.30
2022-12-11T01:50:40.720Z,1007.30
2022-12-11T01:51:40.710Z,1007.30
2022-12-11T01:52:40.709Z,1007.29
2022-12-11T01:53:40.679Z,1007.26
2022-12-11T01:54:40.702Z,1007.28
2022-12-11T01:55:40.684Z,1007.23
2022-12-11T01:56:40.664Z,1007.22
2022-12-11T01:57:40.664Z,1007.24
2022-12-11T01:58:40.658Z,1007.23
2022-12-11T01:59:40.665Z,1007.18
2022-12-11T02:00:40.638Z,1007.20
2022-12-11T02:01:40.762Z,1007.19
2022-12-11T02:02:40.694Z,1007.21
2022-12-11T02:03:40.644Z,1007.21
2022-12-11T02:04:40.616Z,1007.20
2022-12-11T02:05:40.630Z,1007.18
2022-12-11T02:06:40.640Z,1007.20
2022-12-11T02:07:40.617Z,1007.14
2022-12-11T02:08:40.609Z,1007.16
2022-12-11T02:09:40.590Z,1007.19
2022-12-11T02:10:40.583Z,1007.20
2022-12-11T02:11:40.576Z,1007.21
2022-12-11T02:12:40.585Z,1007.20
2022-12-11T02:13:40.572Z,1007.21
2022-12-11T02:14:40.560Z,1007.17
2022-12-11T02:15:40.567Z,1007.20
2022-12-11T02:16:40.578Z,1007.20
2022-12-11T02:17:40.559Z,1007.18
2022-12-11T02:18:40.553Z,1007.15
2022-12-11T02:19:40.536Z,1007.15
2022-12-11T02:20:40.538Z,1007.13
2022-12-11T02:21:40.533Z,1007.12
2022-12-11T02:22:40.548Z,1007.11
2022-12-11T02:23:40.503Z,1007.10
2022-12-11T02:24:40.506Z,1007.08
2022-12-11T02:25:40.500Z,1007.07
2022-12-11T02:26:40.494Z,1007.08
2022-12-11T02:27:40.482Z,1007.06
2022-12-11T02:28:40.479Z,1007.09
2022-12-11T02:29:40.473Z,1007.11
2022-12-11T02:30:40.488Z,1007.08
2022-12-11T02:31:40.502Z,1007.10
2022-12-11T02:32:40.461Z,1007.07
2022-12-11T02:33:40.461Z,1007.08
2022-12-11T02:34:40.468Z,1007.08
2022-12-11T02:35:40.445Z,1007.08
2022-12-11T02:36:40.446Z,1007.08
2022-12-11T02:37:40.444Z,1007.08
2022-12-11T02:38:40.445Z,1007.11
2022-12-11T02:39:40.420Z,1007.03
2022-12-11T02:40:40.404Z,1007.04
2022-12-11T02:41:40.399Z,1007.06
2022-12-11T02:42:40.395Z,1007.09
2022-12-11T02:43:40.386Z,1007.08
2022-12-11T02:44:40.388Z,1007.06
2022-12-11T02:45:40.455Z,1007.07
2022-12-11T02:46:40.401Z,1007.07
2022-12-11T02:47:40.373Z,1007.08
2022-12-11T02:48:40.350Z,1007.04
2022-12-11T02:49:40.363Z,1007.05
2022-12-11T02:50:40.360Z,1007.06
2022-12-11T02:51:40.337Z,1007.07
2022-12-11T02:52:40.335Z,1007.04
2022-12-11T02:53:40.338Z,1007.04
2022-12-11T02:54:40.357Z,1007.03
2022-12-11T02:55:40.314Z,1006.99
2022-12-11T02:56:40.317Z,1007.06
2022-12-11T02:57:40.315Z,1007.02
2022-12-11T02:58:40.304Z,1007.02
2022-12-11T02:59:40.305Z,1006.99
2022-12-11T03:00:40.287Z,1006.96
2022-12-11T03:01:40.357Z,1007.00
2022-12-11T03:02:40.368Z,1006.95
2022-12-11T03:03:40.264Z,1006.94
2022-12-11T03:04:40.256Z,1006.94
2022-12-11T03:05:40.256Z,1006.97
2022-12-11T03:06:40.257Z,1006.94
2022-12-11T03:07:40.285Z,1006.92
2022-12-11T03:08:40.247Z,1006.92
2022-12-11T03:09:40.252Z,1006.92
2022-12-11T03:10:40.263Z,1006.96
2022-12-11T03:11:40.230Z,1006.97
2022-12-11T03:12:40.207Z,1006.96
2022-12-11T03:13:40.240Z,1006.98
2022-12-11T03:14:40.195Z,1006.95
2022-12-11T03:15:40.194Z,1006.97
2022-12-11T03:16:40.240Z,1006.98
2022-12-11T03:17:40.189Z,1006.97
2022-12-11T03:18:40.175Z,1006.96
2022-12-11T03:19:40.181Z,1006.97
2022-12-11T03:20:40.174Z,1006.94
2022-12-11T03:21:40.170Z,1006.96
2022-12-11T03:22:40.169Z,1007.02
2022-12-11T03:23:40.150Z,1007.04
2022-12-11T03:24:40.152Z,1007.02
2022-12-11T03:25:40.139Z,1007.00
2022-12-11T03:26:40.147Z,1007.00
2022-12-11T03:27:40.128Z,1007.04
2022-12-11T03:28:40.116Z,1007.02
2022-12-11T03:29:40.120Z,1007.03
2022-12-11T03:30:40.186Z,1007.00
2022-12-11T03:31:40.114Z,1007.01
2022-12-11T03:32:40.087Z,1007.01
2022-12-11T03:33:40.086Z,1006.99
2022-12-11T03:34:40.100Z,1006.99
2022-12-11T03:35:40.084Z,1006.97
2022-12-11T03:36:40.061Z,1007.01
2022-12-11T03:37:40.074Z,1007.00
2022-12-11T03:38:40.055Z,1007.00
2022-12-11T03:39:40.054Z,1007.01
2022-12-11T03:40:40.062Z,1007.02
2022-12-11T03:41:40.047Z,1007.03
2022-12-11T03:42:40.044Z,1007.03
2022-12-11T03:43:40.056Z,1006.99
2022-12-11T03:44:40.017Z,1007.05
2022-12-11T03:45:40.026Z,1007.01
2022-12-11T03:46:40.032Z,1006.99
2022-12-11T03:47:40.018Z,1007.03
2022-12-11T03:48:40.009Z,1006.98
2022-12-11T03:49:39.997Z,1006.99
2022-12-11T03:50:39.983Z,1006.96
2022-12-11T03:51:39.999Z,1006.99
2022-12-11T03:52:45.527Z,1006.99
2022-12-11T03:53:39.967Z,1006.99
2022-12-11T03:54:39.959Z,1006.99
2022-12-11T03:55:39.973Z,1007.00
2022-12-11T03:56:39.948Z,1007.04
2022-12-11T03:57:39.942Z,1006.99
2022-12-11T03:58:39.949Z,1007.03
2022-12-11T03:59:39.947Z,1006.98
2022-12-11T04:00:39.936Z,1006.97
2022-12-11T04:01:40.055Z,1006.98
2022-12-11T04:02:39.919Z,1006.98
2022-12-11T04:03:39.917Z,1006.96
2022-12-11T04:04:39.968Z,1006.94
2022-12-11T04:05:39.901Z,1006.92
2022-12-11T04:06:39.902Z,1006.95
2022-12-11T04:07:39.900Z,1006.93
2022-12-11T04:08:39.888Z,1006.89
2022-12-11T04:09:39.879Z,1006.90
2022-12-11T04:10:39.864Z,1006.87
2022-12-11T04:11:39.874Z,1006.86
2022-12-11T04:12:39.847Z,1006.86
2022-12-11T04:13:39.854Z,1006.84
2022-12-11T04:15:23.707Z,1006.78
2022-12-11T04:16:22.287Z,1006.79
2022-12-11T04:17:22.256Z,1006.83
2022-12-11T04:18:22.234Z,1006.78
2022-12-11T04:19:22.244Z,1006.78
2022-12-11T04:20:22.238Z,1006.73
2022-12-11T04:21:22.239Z,1006.80
2022-12-11T04:22:22.229Z,1006.79
2022-12-11T04:23:22.224Z,1006.78
2022-12-11T04:24:22.203Z,1006.78
2022-12-11T04:25:22.218Z,1006.77
2022-12-11T04:26:22.186Z,1006.81
2022-12-11T04:27:22.193Z,1006.81
2022-12-11T04:28:22.179Z,1006.83
2022-12-11T04:29:22.192Z,1006.78
2022-12-11T04:30:22.202Z,1006.77
2022-12-11T04:31:22.440Z,1006.75
2022-12-11T04:32:22.178Z,1006.79
2022-12-11T04:33:22.166Z,1006.78
2022-12-11T04:34:22.151Z,1006.76
2022-12-11T04:35:22.170Z,1006.82
2022-12-11T04:36:22.142Z,1006.77
2022-12-11T04:37:22.125Z,1006.79
2022-12-11T04:38:22.141Z,1006.79
2022-12-11T04:39:22.114Z,1006.75
2022-12-11T04:40:22.120Z,1006.77
2022-12-11T04:41:22.121Z,1006.77
2022-12-11T04:42:22.088Z,1006.73
2022-12-11T04:43:22.084Z,1006.74
2022-12-11T04:44:22.075Z,1006.71
2022-12-11T04:45:22.090Z,1006.74
2022-12-11T04:46:22.121Z,1006.77
2022-12-11T04:47:22.081Z,1006.68
2022-12-11T04:48:22.055Z,1006.68
2022-12-11T04:49:22.083Z,1006.70
2022-12-11T04:50:22.043Z,1006.67
2022-12-11T04:51:22.037Z,1006.68
2022-12-11T04:52:22.034Z,1006.64
2022-12-11T04:53:22.026Z,1006.64
2022-12-11T04:54:22.028Z,1006.70
2022-12-11T04:55:22.034Z,1006.65
2022-12-11T04:56:22.084Z,1006.68
2022-12-11T04:57:22.003Z,1006.71
2022-12-11T04:58:21.995Z,1006.67
2022-12-11T04:59:21.985Z,1006.68
2022-12-11T05:00:22.006Z,1006.68
2022-12-11T05:01:22.069Z,1006.70
2022-12-11T05:02:22.024Z,1006.70
2022-12-11T05:03:21.985Z,1006.69
2022-12-11T05:04:21.974Z,1006.68
2022-12-11T05:05:21.958Z,1006.65
2022-12-11T05:06:21.961Z,1006.65
2022-12-11T05:07:21.956Z,1006.60
2022-12-11T05:08:22.021Z,1006.61
2022-12-11T05:09:21.926Z,1006.65
2022-12-11T05:10:21.925Z,1006.62
2022-12-11T05:11:21.912Z,1006.57
2022-12-11T05:12:21.917Z,1006.62
2022-12-11T05:13:21.918Z,1006.61
2022-12-11T05:14:21.902Z,1006.60
2022-12-11T05:15:21.911Z,1006.63
2022-12-11T05:16:21.933Z,1006.62
2022-12-11T05:17:21.889Z,1006.61
2022-12-11T05:18:21.899Z,1006.59
2022-12-11T05:19:21.895Z,1006.60
2022-12-11T05:20:21.890Z,1006.60
2022-12-11T05:21:21.874Z,1006.61
2022-12-11T05:22:21.854Z,1006.62
2022-12-11T05:23:21.837Z,1006.60
2022-12-11T05:24:21.850Z,1006.59
2022-12-11T05:25:21.829Z,1006.61
2022-12-11T05:26:21.827Z,1006.56
2022-12-11T05:27:21.835Z,1006.54
2022-12-11T05:28:21.831Z,1006.54
2022-12-11T05:29:21.824Z,1006.54
2022-12-11T05:30:21.821Z,1006.53
2022-12-11T05:31:21.811Z,1006.51
2022-12-11T05:32:21.803Z,1006.51
2022-12-11T05:33:21.797Z,1006.48
2022-12-11T05:34:21.790Z,1006.47
2022-12-11T05:35:21.808Z,1006.50
2022-12-11T05:36:21.771Z,1006.50
2022-12-11T05:37:21.754Z,1006.50
2022-12-11T05:38:21.754Z,1006.51
2022-12-11T05:39:21.758Z,1006.52
2022-12-11T05:40:21.743Z,1006.50
2022-12-11T05:41:21.757Z,1006.53
2022-12-11T05:42:27.004Z,1006.51
2022-12-11T05:43:21.722Z,1006.51
2022-12-11T05:44:21.733Z,1006.49
2022-12-11T05:45:21.718Z,1006.52
2022-12-11T05:46:21.751Z,1006.50
2022-12-11T05:47:21.692Z,1006.46
2022-12-11T05:48:21.693Z,1006.48
2022-12-11T05:49:25.946Z,1006.46
2022-12-11T05:50:21.691Z,1006.43
2022-12-11T05:51:21.701Z,1006.42
2022-12-11T05:52:21.694Z,1006.44
2022-12-11T05:53:21.667Z,1006.44
2022-12-11T05:54:21.670Z,1006.40
2022-12-11T05:55:21.644Z,1006.42
2022-12-11T05:56:21.658Z,1006.38
2022-12-11T05:57:21.630Z,1006.39
2022-12-11T05:58:21.637Z,1006.37
2022-12-11T05:59:21.637Z,1006.39
2022-12-11T06:00:21.625Z,1006.43
2022-12-11T06:01:21.617Z,1006.42
2022-12-11T06:02:21.682Z,1006.39
2022-12-11T06:03:21.599Z,1006.43
2022-12-11T06:04:21.595Z,1006.45
2022-12-11T06:05:21.590Z,1006.41
2022-12-11T06:06:21.594Z,1006.43
2022-12-11T06:07:21.643Z,1006.49
2022-12-11T06:08:21.605Z,1006.48
2022-12-11T06:09:21.566Z,1006.46
2022-12-11T06:10:21.557Z,1006.48
2022-12-11T06:11:24.160Z,1006.47
2022-12-11T06:12:21.562Z,1006.46
2022-12-11T06:13:21.539Z,1006.49
2022-12-11T06:14:21.547Z,1006.42
2022-12-11T06:15:21.523Z,1006.42
2022-12-11T06:16:21.611Z,1006.41
2022-12-11T06:17:21.533Z,1006.40
2022-12-11T06:18:21.523Z,1006.42
2022-12-11T06:19:21.500Z,1006.37
2022-12-11T06:20:21.517Z,1006.41
2022-12-11T06:21:21.502Z,1006.41
2022-12-11T06:22:21.497Z,1006.35
2022-12-11T06:23:21.545Z,1006.34
2022-12-11T06:24:21.486Z,1006.39
2022-12-11T06:25:21.482Z,1006.36
2022-12-11T06:26:21.481Z,1006.38
2022-12-11T06:27:21.453Z,1006.38
2022-12-11T06:28:21.465Z,1006.43
2022-12-11T06:29:21.458Z,1006.39
2022-12-11T06:30:21.446Z,1006.38
2022-12-11T06:31:21.495Z,1006.38
2022-12-11T06:32:21.440Z,1006.39
2022-12-11T06:33:21.414Z,1006.38
2022-12-11T06:34:21.416Z,1006.38
2022-12-11T06:35:21.417Z,1006.41
2022-12-11T06:36:21.402Z,1006.41
2022-12-11T06:37:21.410Z,1006.41
2022-12-11T06:38:21.405Z,1006.41
2022-12-11T06:39:21.408Z,1006.41
2022-12-11T06:40:21.392Z,1006.36
2022-12-11T06:41:21.383Z,1006.37
2022-12-11T06:42:21.391Z,1006.39
2022-12-11T06:43:21.356Z,1006.35
2022-12-11T06:44:21.351Z,1006.33
2022-12-11T06:45:21.351Z,1006.35
2022-12-11T06:46:21.449Z,1006.36
2022-12-11T06:47:21.335Z,1006.38
2022-12-11T06:48:21.338Z,1006.40
2022-12-11T06:49:21.324Z,1006.43
2022-12-11T06:50:21.427Z,1006.36
2022-12-11T06:51:21.308Z,1006.37
2022-12-11T06:52:21.318Z,1006.36
2022-12-11T06:53:21.313Z,1006.33
2022-12-11T06:54:21.335Z,1006.35
2022-12-11T06:55:21.301Z,1006.42
2022-12-11T06:56:21.299Z,1006.39
2022-12-11T06:57:21.280Z,1006.44
2022-12-11T06:58:21.277Z,1006.39
2022-12-11T06:59:21.259Z,1006.38
2022-12-11T07:00:21.258Z,1006.42
2022-12-11T07:01:21.339Z,1006.42
2022-12-11T07:02:21.315Z,1006.44
2022-12-11T07:03:21.233Z,1006.45
2022-12-11T07:04:21.251Z,1006.47
2022-12-11T07:05:21.239Z,1006.44
2022-12-11T07:06:21.227Z,1006.47
2022-12-11T07:07:21.208Z,1006.46
2022-12-11T07:08:21.266Z,1006.48
2022-12-11T07:09:21.204Z,1006.52
2022-12-11T07:10:21.194Z,1006.54
2022-12-11T07:11:21.211Z,1006.51
2022-12-11T07:12:21.188Z,1006.50
2022-12-11T07:13:21.173Z,1006.51
2022-12-11T07:14:21.177Z,1006.51
2022-12-11T07:15:21.170Z,1006.54
2022-12-11T07:16:21.175Z,1006.52
2022-12-11T07:17:21.147Z,1006.54
2022-12-11T07:18:21.146Z,1006.56
2022-12-11T07:19:21.139Z,1006.57
2022-12-11T07:20:21.155Z,1006.58
2022-12-11T07:21:21.141Z,1006.56
2022-12-11T07:22:21.133Z,1006.58
2022-12-11T07:23:21.114Z,1006.56
2022-12-11T07:24:21.124Z,1006.57
2022-12-11T07:25:21.101Z,1006.60
2022-12-11T07:26:21.096Z,1006.60
2022-12-11T07:27:21.123Z,1006.61
2022-12-11T07:28:21.089Z,1006.61
2022-12-11T07:29:21.078Z,1006.59
2022-12-11T07:30:21.085Z,1006.57
2022-12-11T07:31:21.160Z,1006.61
2022-12-11T07:32:21.229Z,1006.61
2022-12-11T07:33:21.050Z,1006.62
2022-12-11T07:34:21.069Z,1006.59
2022-12-11T07:35:21.049Z,1006.56
2022-12-11T07:36:21.050Z,1006.60
2022-12-11T07:37:21.037Z,1006.59
2022-12-11T07:38:21.035Z,1006.56
2022-12-11T07:39:21.038Z,1006.55
2022-12-11T07:40:21.030Z,1006.57
2022-12-11T07:41:21.013Z,1006.53
2022-12-11T07:42:21.014Z,1006.52
2022-12-11T07:43:21.027Z,1006.48
2022-12-11T07:44:21.003Z,1006.47
2022-12-11T07:45:20.976Z,1006.48
2022-12-11T07:46:21.069Z,1006.48
2022-12-11T07:47:20.980Z,1006.45
2022-12-11T07:48:21.190Z,1006.49
2022-12-11T07:49:20.971Z,1006.48
2022-12-11T07:50:20.952Z,1006.51
2022-12-11T07:51:20.942Z,1006.52
2022-12-11T07:52:20.957Z,1006.50
2022-12-11T07:53:20.947Z,1006.51
2022-12-11T07:54:20.942Z,1006.52
2022-12-11T07:55:20.934Z,1006.45
2022-12-11T07:56:20.929Z,1006.46
2022-12-11T07:57:20.912Z,1006.46
2022-12-11T07:58:20.916Z,1006.47
2022-12-11T07:59:20.924Z,1006.48
2022-12-11T08:00:20.912Z,1006.43
2022-12-11T08:01:20.963Z,1006.47
2022-12-11T08:02:20.918Z,1006.47
2022-12-11T08:03:20.872Z,1006.49
2022-12-11T08:04:20.880Z,1006.50
2022-12-11T08:05:20.858Z,1006.50
2022-12-11T08:06:20.870Z,1006.46
2022-12-11T08:07:20.855Z,1006.46
2022-12-11T08:08:20.947Z,1006.47
2022-12-11T08:09:21.498Z,1006.46
2022-12-11T08:10:20.839Z,1006.44
2022-12-11T08:11:20.818Z,1006.48
2022-12-11T08:12:20.837Z,1006.50
2022-12-11T08:13:20.835Z,1006.46
2022-12-11T08:14:20.804Z,1006.49
2022-12-11T08:15:20.834Z,1006.50
2022-12-11T08:16:20.839Z,1006.47
2022-12-11T08:17:25.896Z,1006.52
2022-12-11T08:18:20.795Z,1006.51
2022-12-11T08:19:20.783Z,1006.47
2022-12-11T08:20:20.768Z,1006.50
2022-12-11T08:21:20.781Z,1006.46
2022-12-11T08:22:20.767Z,1006.48
2022-12-11T08:23:20.757Z,1006.45
2022-12-11T08:24:20.762Z,1006.44
2022-12-11T08:25:20.735Z,1006.44
2022-12-11T08:26:20.736Z,1006.41
2022-12-11T08:27:20.722Z,1006.41
2022-12-11T08:28:20.721Z,1006.40
2022-12-11T08:29:20.730Z,1006.46
2022-12-11T08:30:20.719Z,1006.44
2022-12-11T08:31:20.815Z,1006.43
2022-12-11T08:32:20.707Z,1006.41
2022-12-11T08:33:20.696Z,1006.42
2022-12-11T08:34:20.695Z,1006.44
2022-12-11T08:35:20.672Z,1006.48
2022-12-11T08:36:20.691Z,1006.46
2022-12-11T08:37:20.671Z,1006.43
2022-12-11T08:38:25.196Z,1006.43
2022-12-11T08:39:20.660Z,1006.40
2022-12-11T08:40:20.645Z,1006.39
2022-12-11T08:41:20.645Z,1006.38
2022-12-11T08:42:20.636Z,1006.37
2022-12-11T08:43:20.638Z,1006.41
2022-12-11T08:44:20.620Z,1006.39
2022-12-11T08:45:20.610Z,1006.42
2022-12-11T08:46:20.696Z,1006.39
2022-12-11T08:47:20.688Z,1006.40
2022-12-11T08:48:20.604Z,1006.40
2022-12-11T08:49:20.599Z,1006.44
2022-12-11T08:50:20.597Z,1006.38
2022-12-11T08:51:20.574Z,1006.38
2022-12-11T08:52:20.586Z,1006.41
2022-12-11T08:53:20.574Z,1006.38
2022-12-11T08:54:20.560Z,1006.40
2022-12-11T08:55:20.561Z,1006.39
2022-12-11T08:56:20.568Z,1006.36
2022-12-11T08:57:20.550Z,1006.33
2022-12-11T08:58:20.586Z,1006.34
2022-12-11T08:59:20.581Z,1006.37
2022-12-11T09:00:20.541Z,1006.33
2022-12-11T09:01:20.572Z,1006.34
2022-12-11T09:02:20.602Z,1006.38
2022-12-11T09:03:20.522Z,1006.36
2022-12-11T09:04:20.507Z,1006.36
2022-12-11T09:05:20.490Z,1006.39
2022-12-11T09:06:20.495Z,1006.41
2022-12-11T09:07:20.503Z,1006.40
2022-12-11T09:08:20.567Z,1006.39
2022-12-11T09:09:20.487Z,1006.39
2022-12-11T09:10:20.481Z,1006.43
2022-12-11T09:11:20.472Z,1006.46
2022-12-11T09:12:20.468Z,1006.47
2022-12-11T09:13:20.469Z,1006.52
2022-12-11T09:14:20.445Z,1006.45
2022-12-11T09:15:20.457Z,1006.44
2022-12-11T09:16:20.513Z,1006.47
2022-12-11T09:17:20.436Z,1006.46
2022-12-11T09:18:20.436Z,1006.46
2022-12-11T09:19:20.460Z,1006.46
2022-12-11T09:20:20.521Z,1006.43
2022-12-11T09:21:20.408Z,1006.43
2022-12-11T09:22:20.414Z,1006.46
2022-12-11T09:23:20.400Z,1006.47
2022-12-11T09:24:20.403Z,1006.45
2022-12-11T09:25:20.402Z,1006.46
2022-12-11T09:26:20.384Z,1006.45
2022-12-11T09:27:20.391Z,1006.44
2022-12-11T09:28:20.368Z,1006.43
2022-12-11T09:29:20.387Z,1006.45
2022-12-11T09:30:20.379Z,1006.44
2022-12-11T09:31:20.469Z,1006.43
2022-12-11T09:32:20.363Z,1006.41
2022-12-11T09:33:20.349Z,1006.39
2022-12-11T09:34:23.653Z,1006.42
2022-12-11T09:35:20.360Z,1006.40
2022-12-11T09:36:20.329Z,1006.43
2022-12-11T09:37:20.329Z,1006.43
2022-12-11T09:38:20.319Z,1006.42
2022-12-11T09:39:20.343Z,1006.46
2022-12-11T09:40:20.325Z,1006.43
2022-12-11T09:41:20.348Z,1006.46
2022-12-11T09:42:20.312Z,1006.45
2022-12-11T09:43:20.310Z,1006.43
2022-12-11T09:44:20.293Z,1006.44
2022-12-11T09:45:20.290Z,1006.44
2022-12-11T09:46:24.431Z,1006.41
2022-12-11T09:47:20.286Z,1006.43
2022-12-11T09:48:20.278Z,1006.37
2022-12-11T09:49:20.283Z,1006.40
2022-12-11T09:50:20.278Z,1006.44
2022-12-11T09:51:20.296Z,1006.44
2022-12-11T09:52:20.255Z,1006.43
2022-12-11T09:53:20.258Z,1006.44
2022-12-11T09:54:20.252Z,1006.46
2022-12-11T09:55:20.262Z,1006.45
2022-12-11T09:56:20.255Z,1006.47
2022-12-11T09:57:20.259Z,1006.48
2022-12-11T09:58:20.250Z,1006.51
2022-12-11T09:59:20.247Z,1006.49
2022-12-11T10:00:20.234Z,1006.48
2022-12-11T10:01:20.300Z,1006.44
2022-12-11T10:02:20.277Z,1006.45
2022-12-11T10:03:20.217Z,1006.46
2022-12-11T10:04:20.232Z,1006.46
2022-12-11T10:05:20.205Z,1006.46
2022-12-11T10:06:20.197Z,1006.41
2022-12-11T10:07:20.244Z,1006.42
2022-12-11T10:08:20.245Z,1006.41
2022-12-11T10:09:20.189Z,1006.38
2022-12-11T10:10:20.218Z,1006.36
2022-12-11T10:11:20.189Z,1006.34
2022-12-11T10:12:20.230Z,1006.35
2022-12-11T10:13:20.188Z,1006.29
2022-12-11T10:14:20.178Z,1006.28
2022-12-11T10:15:20.174Z,1006.30
2022-12-11T10:16:20.278Z,1006.24
2022-12-11T10:17:20.163Z,1006.29
2022-12-11T10:18:20.161Z,1006.27
2022-12-11T10:19:20.153Z,1006.23
2022-12-11T10:20:20.158Z,1006.25
2022-12-11T10:21:20.161Z,1006.23
2022-12-11T10:22:20.134Z,1006.16
2022-12-11T10:23:20.187Z,1006.21
2022-12-11T10:24:41.925Z,1006.17
2022-12-11T10:25:20.143Z,1006.17
2022-12-11T10:26:20.120Z,1006.17
2022-12-11T10:27:20.141Z,1006.16
2022-12-11T10:28:20.111Z,1006.12
2022-12-11T10:29:20.114Z,1006.18
2022-12-11T10:30:20.120Z,1006.17
2022-12-11T10:31:20.179Z,1006.16
2022-12-11T10:32:20.108Z,1006.13
2022-12-11T10:33:20.096Z,1006.14
2022-12-11T10:34:20.101Z,1006.09
2022-12-11T10:35:20.088Z,1006.10
2022-12-11T10:36:20.079Z,1006.09
2022-12-11T10:37:20.080Z,1006.10
2022-12-11T10:38:20.077Z,1006.04
2022-12-11T10:39:20.106Z,1006.07
2022-12-11T10:40:20.074Z,1006.07
2022-12-11T10:41:20.064Z,1006.07
2022-12-11T10:42:20.065Z,1006.06
2022-12-11T10:43:20.069Z,1006.02
2022-12-11T10:44:20.062Z,1006.04
2022-12-11T10:45:20.052Z,1006.00
2022-12-11T10:46:20.133Z,1006.02
2022-12-11T10:47:20.052Z,1006.00
2022-12-11T10:48:20.032Z,1005.99
2022-12-11T10:49:20.055Z,1005.99
2022-12-11T10:50:20.044Z,1005.97
2022-12-11T10:51:20.021Z,1005.96
2022-12-11T10:52:20.032Z,1005.92
2022-12-11T10:53:20.044Z,1005.95
2022-12-11T10:54:20.024Z,1005.91
2022-12-11T10:55:20.043Z,1005.85
2022-12-11T10:56:20.024Z,1005.89
2022-12-11T10:57:20.003Z,1005.85
2022-12-11T10:58:20.011Z,1005.88
2022-12-11T10:59:24.013Z,1005.83
2022-12-11T11:00:19.992Z,1005.87
2022-12-11T11:01:20.074Z,1005.84
2022-12-11T11:02:20.052Z,1005.81
2022-12-11T11:03:19.998Z,1005.79
2022-12-11T11:04:19.975Z,1005.86
2022-12-11T11:05:19.963Z,1005.82
2022-12-11T11:06:19.960Z,1005.83
2022-12-11T11:07:19.973Z,1005.81
2022-12-11T11:08:20.056Z,1005.77
2022-12-11T11:09:19.956Z,1005.82
2022-12-11T11:10:19.947Z,1005.83
2022-12-11T11:11:19.955Z,1005.83
2022-12-11T11:12:19.920Z,1005.80
2022-12-11T11:13:19.940Z,1005.78
2022-12-11T11:14:19.915Z,1005.80
2022-12-11T11:15:19.925Z,1005.79
2022-12-11T11:16:19.935Z,1005.78
2022-12-11T11:17:19.924Z,1005.77
2022-12-11T11:18:19.925Z,1005.80
2022-12-11T11:19:19.878Z,1005.76
2022-12-11T11:20:19.879Z,1005.79
2022-12-11T11:21:19.874Z,1005.84
2022-12-11T11:22:19.870Z,1005.78
2022-12-11T11:23:19.859Z,1005.83
2022-12-11T11:24:19.848Z,1005.81
2022-12-11T11:25:19.843Z,1005.82
2022-12-11T11:26:19.830Z,1005.80
2022-12-11T11:27:19.825Z,1005.76
2022-12-11T11:28:19.813Z,1005.76
2022-12-11T11:29:19.796Z,1005.71
2022-12-11T11:30:19.792Z,1005.69
2022-12-11T11:31:19.844Z,1005.72
2022-12-11T11:32:19.788Z,1005.70
2022-12-11T11:33:19.771Z,1005.69
2022-12-11T11:34:19.740Z,1005.66
2022-12-11T11:35:19.732Z,1005.72
2022-12-11T11:36:19.741Z,1005.70
2022-12-11T11:37:19.711Z,1005.71
2022-12-11T11:38:19.710Z,1005.68
2022-12-11T11:39:19.696Z,1005.67
2022-12-11T11:40:19.682Z,1005.66
2022-12-11T11:41:19.673Z,1005.61
2022-12-11T11:42:19.672Z,1005.58
2022-12-11T11:43:19.669Z,1005.56
2022-12-11T11:44:19.635Z,1005.55
2022-12-11T11:45:19.642Z,1005.49
2022-12-11T11:46:19.634Z,1005.56
2022-12-11T11:47:19.624Z,1005.53
2022-12-11T11:48:19.610Z,1005.51
2022-12-11T11:49:19.593Z,1005.48
2022-12-11T11:50:19.570Z,1005.49
2022-12-11T11:51:19.575Z,1005.51
2022-12-11T11:52:19.565Z,1005.52
2022-12-11T11:53:19.554Z,1005.53
2022-12-11T11:54:19.528Z,1005.56
2022-12-11T11:55:22.467Z,1005.58
2022-12-11T11:56:19.516Z,1005.59
2022-12-11T11:57:19.495Z,1005.59
2022-12-11T11:58:19.498Z,1005.64
2022-12-11T11:59:19.509Z,1005.58
2022-12-11T12:00:19.457Z,1005.58
2022-12-11T12:01:19.466Z,1005.58
2022-12-11T12:02:19.537Z,1005.56
2022-12-11T12:03:19.442Z,1005.50
2022-12-11T12:04:19.416Z,1005.55
2022-12-11T12:05:19.416Z,1005.51
2022-12-11T12:06:19.390Z,1005.46